Date,TemperatureHighF,TemperatureAvgF,TemperatureLowF,DewpointHighF,DewpointAvgF,DewpointLowF,HumidityHigh,HumidityAvg,HumidityLow,PressureMaxIn,PressureMinIn,WindSpeedMaxMPH,WindSpeedAvgMPH,GustSpeedMaxMPH,PrecipitationSumIn
2013-9-3,-200.0,0.0,200.0,-99.9,-99.9,-99.9,0,0,100,29.96,29.31,24,17,0,0.00
2013-9-4,55.0,4.1,51.0,45.0,-92.4,-99.9,81,4,71,29.83,29.47,24,16,0,0.00
2013-9-5,53.0,3.3,53.0,48.0,-90.7,-99.9,81,5,81,29.90,29.83,16,12,0,0.00
2013-9-10,53.0,32.8,50.0,45.0,-8.9,-99.9,75,45,68,29.87,29.71,28,18,0,0.00
2013-9-11,52.0,50.9,49.0,46.0,44.9,43.0,82,79,77,29.87,29.68,9,6,0,0.00
2013-9-12,53.0,51.0,49.0,49.0,48.0,47.0,96,89,79,29.40,29.25,15,8,0,0.00
2013-9-13,51.0,41.4,49.0,50.0,21.1,-99.9,98,74,79,30.06,29.49,24,17,0,0.00
2013-9-14,51.0,20.0,48.0,46.0,-41.4,-99.9,91,34,77,30.24,30.07,20,12,0,0.00
2013-9-15,50.0,10.0,48.0,42.0,-71.0,-99.9,81,16,71,30.25,30.14,13,7,0,0.00
2013-9-16,50.0,10.6,47.0,47.0,-68.3,-99.9,94,19,68,30.14,29.94,23,10,0,0.00
2013-9-17,50.0,13.4,48.0,47.0,-60.4,-99.9,94,23,78,29.93,29.78,28,12,0,0.00
2013-9-18,49.0,6.8,49.0,43.0,-80.0,-99.9,79,11,76,29.96,29.91,21,12,0,0.00
2013-9-19,-200.0,0.0,200.0,-99.9,-99.9,-99.9,0,0,100,29.90,29.83,18,12,0,0.00
2013-9-20,52.0,2.7,49.0,49.0,-92.1,-99.9,97,5,90,29.82,28.63,45,18,0,0.00
2013-9-21,48.0,7.1,45.0,44.0,-78.7,-99.9,88,12,61,29.63,28.81,44,23,0,0.00
2013-9-22,47.0,7.4,44.0,39.0,-77.7,-99.9,80,11,60,29.87,29.66,32,15,0,0.00
2013-9-23,49.0,7.5,45.0,47.0,-77.2,-99.9,92,14,76,29.87,29.69,31,14,0,0.00
2013-9-24,50.0,3.8,47.0,50.0,-88.1,-99.9,100,8,98,29.70,29.54,31,21,0,0.00
2013-9-25,-200.0,0.0,200.0,-99.9,-99.9,-99.9,0,0,100,29.54,29.42,28,10,0,0.00
2013-9-30,-200.0,0.0,200.0,-99.9,-99.9,-99.9,0,0,100,29.59,29.58,32,22,0,0.00